Time;durP1;ratioP1;P1;durP2;ratioP2;P2;SDS_P1;SDS_P2;PMS_P1;PMS_P2;Temp;Humidity;BMP_temperature;BMP_pressure;BME280_temperature;BME280_humidity;BME280_pressure;Samples;Min_cycle;Max_cycle;Signal;HPM_P1;HPM_P2
2022/01/28 00:01:08;;;;;;;28.80;14.80;;;2.30;99.90;;;;;;5041400;28;20489;-75
2022/01/28 00:03:35;;;;;;;28.60;13.80;;;2.30;99.90;;;;;;5033611;28;20774;-74
2022/01/28 00:06:02;;;;;;;27.77;13.20;;;2.30;99.90;;;;;;5029999;28;20430;-74
2022/01/28 00:08:28;;;;;;;29.07;13.77;;;2.40;99.90;;;;;;5031936;28;20941;-74
2022/01/28 00:10:54;;;;;;;31.47;14.40;;;2.60;99.90;;;;;;5030715;28;20409;-74
2022/01/28 00:13:23;;;;;;;29.70;14.50;;;3.10;99.90;;;;;;5030914;28;20763;-74
2022/01/28 00:39:47;;;;;;;25.50;13.33;;;2.80;99.90;;;;;;5030184;28;20519;-74
2022/01/28 00:42:13;;;;;;;26.43;13.50;;;3.00;99.90;;;;;;5031365;28;20273;-73
2022/01/28 00:44:39;;;;;;;28.87;13.80;;;2.90;99.90;;;;;;5030095;28;20889;-74
2022/01/28 00:47:05;;;;;;;24.97;13.60;;;3.10;99.90;;;;;;5031375;28;20361;-74
2022/01/28 00:49:30;;;;;;;25.40;13.33;;;2.90;99.90;;;;;;5030851;28;20184;-76
2022/01/28 00:51:56;;;;;;;27.30;11.23;;;2.80;99.90;;;;;;5030786;28;20178;-74
2022/01/28 00:54:22;;;;;;;29.00;13.20;;;3.20;99.90;;;;;;5030390;28;20633;-73
2022/01/28 00:56:48;;;;;;;25.10;14.03;;;3.10;99.90;;;;;;5029317;28;20170;-73
2022/01/28 00:59:13;;;;;;;26.63;13.60;;;2.70;99.90;;;;;;5030699;28;20221;-74
2022/01/28 01:01:39;;;;;;;26.57;14.00;;;2.60;99.90;;;;;;5025077;28;20425;-74
2022/01/28 01:04:05;;;;;;;27.30;14.50;;;2.60;99.90;;;;;;5029885;28;20184;-74
2022/01/28 01:06:31;;;;;;;25.13;13.07;;;2.90;99.90;;;;;;5030256;28;20240;-75
2022/01/28 01:08:58;;;;;;;26.23;12.77;;;2.50;99.90;;;;;;5030406;28;20189;-73
2022/01/28 01:11:24;;;;;;;28.73;14.47;;;2.50;99.90;;;;;;5029213;28;20449;-73
2022/01/28 01:13:51;;;;;;;28.93;14.10;;;2.50;99.90;;;;;;5029852;28;20966;-73
2022/01/28 01:16:24;;;;;;;27.10;14.30;;;2.90;99.90;;;;;;5029982;28;20723;-73
2022/01/28 01:18:51;;;;;;;27.13;13.90;;;2.50;99.90;;;;;;5030683;28;20743;-73
2022/01/28 01:21:22;;;;;;;26.77;13.37;;;2.60;99.90;;;;;;5029238;28;20520;-73
2022/01/28 01:23:54;;;;;;;26.23;13.40;;;3.20;99.90;;;;;;5029723;28;20443;-73
2022/01/28 01:26:28;;;;;;;25.07;12.60;;;2.90;99.90;;;;;;5027821;28;20423;-74
2022/01/28 01:28:54;;;;;;;19.37;11.27;;;3.20;99.90;;;;;;5026860;28;20433;-74
2022/01/28 01:31:19;;;;;;;23.87;12.57;;;2.80;99.90;;;;;;5029394;28;20635;-74
2022/01/28 01:36:44;;;;;;;24.07;12.53;;;3.30;99.90;;;;;;4994553;28;20188;-73
2022/01/28 01:39:14;;;;;;;22.60;12.00;;;2.80;99.90;;;;;;5029568;28;20919;-73
2022/01/28 01:41:45;;;;;;;16.80;7.93;;;2.90;99.90;;;;;;5030240;28;20752;-74
2022/01/28 01:44:25;;;;;;;23.73;12.67;;;2.80;99.90;;;;;;5028484;28;20416;-74
2022/01/28 01:52:26;;;;;;;23.87;12.00;;;3.10;99.90;;;;;;5019577;28;20898;-74
2022/01/28 01:54:52;;;;;;;22.80;12.17;;;3.50;99.90;;;;;;5031854;28;20559;-73
2022/01/28 01:57:18;;;;;;;26.47;13.50;;;3.20;99.90;;;;;;5029281;28;20166;-73
2022/01/28 01:59:44;;;;;;;28.37;13.10;;;3.50;99.90;;;;;;5027883;28;20174;-74
2022/01/28 02:02:11;;;;;;;21.73;12.77;;;3.20;99.90;;;;;;5029403;28;20435;-73
2022/01/28 02:04:37;;;;;;;23.90;12.27;;;3.20;99.90;;;;;;5028395;28;20189;-73
2022/01/28 02:07:04;;;;;;;23.03;12.10;;;3.20;99.90;;;;;;5029364;28;20509;-74
2022/01/28 02:09:29;;;;;;;25.87;12.70;;;3.20;99.90;;;;;;5029320;28;20428;-74
2022/01/28 02:11:55;;;;;;;27.70;11.93;;;3.20;99.90;;;;;;5029050;28;20448;-74
2022/01/28 02:14:20;;;;;;;26.37;12.30;;;3.20;99.90;;;;;;5027900;28;20215;-74
2022/01/28 02:16:46;;;;;;;27.00;12.63;;;3.40;99.90;;;;;;5028352;28;20189;-73
2022/01/28 02:19:12;;;;;;;26.60;12.87;;;2.90;99.90;;;;;;5028958;28;20272;-73
2022/01/28 02:21:45;;;;;;;23.70;12.83;;;2.90;99.90;;;;;;5028588;28;20213;-73
2022/01/28 02:24:12;;;;;;;27.17;14.00;;;3.20;99.90;;;;;;5028762;28;20173;-73
2022/01/28 02:26:38;;;;;;;25.70;13.40;;;2.80;99.90;;;;;;5029289;28;20440;-73
2022/01/28 02:29:12;;;;;;;22.80;12.27;;;2.70;99.90;;;;;;5026845;28;20920;-73
2022/01/28 02:31:37;;;;;;;27.37;11.80;;;2.80;99.90;;;;;;5036376;28;20974;-73
2022/01/28 02:34:05;;;;;;;20.63;11.43;;;3.20;99.90;;;;;;5027863;28;20459;-73
2022/01/28 02:36:30;;;;;;;25.63;13.10;;;3.30;99.90;;;;;;5027820;28;20257;-74
2022/01/28 02:38:58;;;;;;;22.13;12.80;;;3.00;99.90;;;;;;5027247;28;20499;-74
2022/01/28 02:41:27;;;;;;;23.07;12.50;;;3.20;99.90;;;;;;5028276;28;20178;-74
2022/01/28 02:44:07;;;;;;;21.23;10.60;;;3.20;99.90;;;;;;5037191;28;20933;-74
2022/01/28 02:46:35;;;;;;;18.13;11.23;;;3.20;99.90;;;;;;5020742;28;20420;-74
2022/01/28 02:49:05;;;;;;;20.20;10.90;;;3.30;99.90;;;;;;5028547;28;20479;-74
2022/01/28 02:51:31;;;;;;;18.53;11.20;;;3.40;99.90;;;;;;5025923;28;20843;-74
2022/01/28 02:54:00;;;;;;;20.17;11.63;;;3.30;99.90;;;;;;5027813;28;20479;-73
2022/01/28 02:56:37;;;;;;;21.00;12.20;;;3.30;99.90;;;;;;5028310;28;20248;-74
2022/01/28 02:59:03;;;;;;;19.43;11.17;;;3.40;99.90;;;;;;5028065;28;20404;-73
2022/01/28 03:01:29;;;;;;;18.20;10.50;;;3.30;99.90;;;;;;5023911;28;20891;-74
2022/01/28 03:03:56;;;;;;;18.20;10.53;;;3.30;99.90;;;;;;5025960;28;20208;-74
2022/01/28 03:06:22;;;;;;;20.03;10.93;;;3.30;99.90;;;;;;5027431;28;20172;-75
2022/01/28 03:08:56;;;;;;;21.33;11.40;;;3.90;99.90;;;;;;5028125;28;20527;-75
2022/01/28 03:11:41;;;;;;;19.83;10.30;;;3.40;99.90;;;;;;5028366;28;20863;-73
2022/01/28 03:14:36;;;;;;;21.97;12.20;;;3.40;99.90;;;;;;5027302;28;20466;-74
2022/01/28 03:17:10;;;;;;;18.70;10.97;;;3.40;99.90;;;;;;5028652;28;20822;-73
2022/01/28 03:19:50;;;;;;;20.00;10.03;;;3.40;99.90;;;;;;5027788;28;20441;-73
2022/01/28 03:22:16;;;;;;;19.63;11.20;;;3.30;99.90;;;;;;5027936;28;20419;-73
2022/01/28 03:24:42;;;;;;;20.53;11.20;;;3.60;99.90;;;;;;5026307;28;20425;-74
2022/01/28 03:27:16;;;;;;;19.63;11.17;;;3.50;99.90;;;;;;5027533;28;20182;-73
2022/01/28 03:29:42;;;;;;;20.83;11.43;;;3.10;99.90;;;;;;5027578;28;20906;-73
2022/01/28 03:32:08;;;;;;;20.97;10.80;;;3.00;99.90;;;;;;5028129;28;20447;-74
2022/01/28 03:34:33;;;;;;;20.87;11.63;;;3.00;99.90;;;;;;5025267;28;20251;-74
2022/01/28 03:36:59;;;;;;;20.03;11.63;;;2.90;99.90;;;;;;5020513;28;20220;-74
2022/01/28 03:39:25;;;;;;;20.50;11.87;;;2.90;99.90;;;;;;5027494;28;20166;-74
2022/01/28 03:41:50;;;;;;;17.63;11.33;;;2.90;99.90;;;;;;5027595;28;20272;-73
2022/01/28 03:44:16;;;;;;;23.60;12.53;;;2.90;99.90;;;;;;5023345;28;20535;-73
2022/01/28 03:46:41;;;;;;;21.30;12.00;;;3.10;99.90;;;;;;5027381;28;20174;-74
2022/01/28 03:49:09;;;;;;;21.67;11.93;;;3.10;99.90;;;;;;5026978;28;20185;-74
2022/01/28 03:51:34;;;;;;;22.63;12.90;;;3.30;99.90;;;;;;5027344;28;20189;-74
2022/01/28 03:54:00;;;;;;;25.47;12.43;;;3.70;99.90;;;;;;5027901;28;20906;-74
2022/01/28 03:56:25;;;;;;;24.63;12.20;;;3.30;99.90;;;;;;5030697;28;20197;-74
2022/01/28 03:58:51;;;;;;;24.00;12.30;;;3.30;99.90;;;;;;5027969;28;20197;-73
2022/01/28 04:01:22;;;;;;;19.60;12.20;;;3.00;99.90;;;;;;5027765;28;20759;-73
2022/01/28 04:11:51;;;;;;;23.67;12.23;;;3.20;99.90;;;;;;5022719;28;20503;-73
2022/01/28 04:14:33;;;;;;;21.77;11.90;;;3.20;99.90;;;;;;5025487;28;20502;-73
2022/01/28 04:19:44;;;;;;;22.33;11.43;;;3.50;99.90;;;;;;5012250;28;20555;-73
2022/01/28 04:22:09;;;;;;;17.53;10.10;;;3.20;99.90;;;;;;5018635;28;20440;-74
2022/01/28 04:24:35;;;;;;;24.63;13.87;;;3.50;99.90;;;;;;5031429;28;20424;-74
2022/01/28 04:27:00;;;;;;;23.23;12.60;;;3.50;99.90;;;;;;5030826;28;20182;-74
2022/01/28 04:29:26;;;;;;;24.10;12.70;;;3.00;99.90;;;;;;5030105;28;20433;-73
2022/01/28 04:31:51;;;;;;;23.93;12.03;;;3.00;99.90;;;;;;5024993;28;20235;-73
2022/01/28 04:34:18;;;;;;;22.77;11.60;;;3.30;99.90;;;;;;5037328;28;20698;-75
2022/01/28 04:37:01;;;;;;;26.83;12.60;;;2.90;99.90;;;;;;5030641;28;20396;-73
2022/01/28 04:39:37;;;;;;;27.03;13.87;;;3.10;99.90;;;;;;5031466;28;20432;-73
2022/01/28 04:50:03;;;;;;;27.37;12.13;;;3.50;99.90;;;;;;5035473;28;20977;-74
2022/01/28 04:55:28;;;;;;;23.83;12.40;;;3.20;99.90;;;;;;5030071;28;20459;-74
2022/01/28 05:03:33;;;;;;;21.83;11.70;;;3.30;99.90;;;;;;5031167;28;20460;-74
2022/01/28 05:08:57;;;;;;;24.77;12.40;;;3.30;99.90;;;;;;5031186;28;20432;-74
2022/01/28 05:27:28;;;;;;;27.73;13.20;;;3.10;99.90;;;;;;5030704;28;20733;-74
2022/01/28 05:29:53;;;;;;;27.33;13.00;;;3.40;99.90;;;;;;5030167;28;20420;-73
2022/01/28 05:32:19;;;;;;;25.43;13.33;;;3.20;99.90;;;;;;5037863;28;20509;-74
2022/01/28 05:34:44;;;;;;;23.73;12.93;;;3.60;99.90;;;;;;5035838;28;20285;-74
2022/01/28 05:37:10;;;;;;;26.47;13.07;;;3.60;99.90;;;;;;5026017;28;20400;-74
2022/01/28 05:39:36;;;;;;;21.60;12.20;;;3.40;99.90;;;;;;5028667;28;20328;-74
2022/01/28 05:42:02;;;;;;;21.80;12.47;;;3.30;99.90;;;;;;5030812;28;20189;-74
2022/01/28 05:44:28;;;;;;;25.70;13.87;;;3.30;99.90;;;;;;5028940;28;20192;-73
2022/01/28 05:47:02;;;;;;;27.90;13.10;;;3.40;99.90;;;;;;5030313;28;20420;-74
2022/01/28 05:49:27;;;;;;;25.73;14.20;;;3.40;99.90;;;;;;5029756;28;20750;-74
2022/01/28 05:51:53;;;;;;;26.03;13.20;;;3.50;99.90;;;;;;5029291;28;20511;-73
2022/01/28 05:54:18;;;;;;;24.73;13.60;;;3.90;99.90;;;;;;5029641;28;20216;-73
2022/01/28 05:56:44;;;;;;;27.73;14.17;;;3.70;99.90;;;;;;5030907;28;20223;-73
2022/01/28 05:59:09;;;;;;;24.63;12.70;;;3.50;99.90;;;;;;5029214;28;20201;-73
2022/01/28 06:01:35;;;;;;;27.30;13.23;;;3.60;99.90;;;;;;5029867;28;20273;-74
2022/01/28 06:04:00;;;;;;;23.10;12.07;;;3.50;99.90;;;;;;5029474;28;20178;-74
2022/01/28 06:06:26;;;;;;;24.43;12.50;;;3.60;99.90;;;;;;5028644;28;20182;-74
2022/01/28 06:08:54;;;;;;;24.43;13.13;;;3.70;99.90;;;;;;5029837;28;20186;-75
2022/01/28 06:11:20;;;;;;;30.50;14.90;;;3.70;99.90;;;;;;5027992;28;20201;-74
2022/01/28 06:13:46;;;;;;;26.27;14.37;;;3.70;99.90;;;;;;5028411;28;21545;-74
2022/01/28 06:16:14;;;;;;;24.40;13.00;;;3.70;99.90;;;;;;5029239;28;20451;-73
2022/01/28 06:18:40;;;;;;;28.17;13.53;;;4.10;99.90;;;;;;5028055;28;20423;-73
2022/01/28 06:21:06;;;;;;;23.80;13.33;;;;;;;;;;5023144;28;20415;-74
2022/01/28 06:23:32;;;;;;;28.17;14.10;;;3.80;99.90;;;;;;5028241;28;20479;-74
2022/01/28 06:25:57;;;;;;;23.93;12.80;;;3.90;99.90;;;;;;5028893;28;20428;-73
2022/01/28 06:28:23;;;;;;;22.50;12.37;;;4.20;99.90;;;;;;5029225;28;20435;-73
2022/01/28 06:30:49;;;;;;;25.20;13.57;;;3.90;99.90;;;;;;5028405;28;20182;-74
2022/01/28 06:33:15;;;;;;;30.30;13.37;;;3.90;99.90;;;;;;5027640;28;20225;-73
2022/01/28 06:35:41;;;;;;;25.13;12.53;;;4.10;99.90;;;;;;5027794;28;20827;-74
2022/01/28 06:38:07;;;;;;;27.70;14.30;;;4.30;99.90;;;;;;5026429;28;20186;-74
2022/01/28 06:40:32;;;;;;;26.73;14.17;;;3.80;99.90;;;;;;5028838;28;20454;-75
2022/01/28 06:42:58;;;;;;;23.33;12.83;;;4.00;99.90;;;;;;5029126;28;20259;-74
2022/01/28 06:45:24;;;;;;;25.20;12.90;;;;;;;;;;5028192;28;20189;-74
2022/01/28 06:47:49;;;;;;;23.57;13.57;;;4.00;99.90;;;;;;5029510;28;20186;-74
2022/01/28 06:50:15;;;;;;;23.50;12.90;;;4.20;99.90;;;;;;5027740;28;21010;-74
2022/01/28 06:52:42;;;;;;;28.87;14.70;;;4.00;99.90;;;;;;5027937;28;20648;-74
2022/01/28 06:55:09;;;;;;;27.60;13.80;;;4.30;99.90;;;;;;5027989;28;20201;-74
2022/01/28 06:57:35;;;;;;;28.33;13.60;;;3.90;99.90;;;;;;5027629;28;20798;-74
2022/01/28 07:00:00;;;;;;;25.00;12.60;;;4.20;99.90;;;;;;5028172;28;20424;-74
2022/01/28 07:02:26;;;;;;;25.50;12.93;;;3.80;99.90;;;;;;5028551;28;20202;-77
2022/01/28 07:04:51;;;;;;;22.83;12.87;;;3.80;99.90;;;;;;5027446;28;20197;-74
2022/01/28 07:07:17;;;;;;;28.53;13.47;;;4.20;99.90;;;;;;5028526;28;20216;-74
2022/01/28 07:09:43;;;;;;;24.93;13.33;;;4.20;99.90;;;;;;5028417;28;20181;-73
2022/01/28 07:12:09;;;;;;;20.03;12.00;;;3.90;99.90;;;;;;5028446;28;20268;-74
2022/01/28 07:14:35;;;;;;;24.10;12.80;;;3.90;99.90;;;;;;5027705;28;20221;-75
2022/01/28 07:17:00;;;;;;;22.50;12.57;;;4.30;99.90;;;;;;5029043;28;20413;-74
2022/01/28 07:19:26;;;;;;;22.57;12.43;;;3.90;99.90;;;;;;5026069;28;20188;-74
2022/01/28 07:21:52;;;;;;;26.33;12.47;;;4.00;99.90;;;;;;5026444;28;20533;-74
2022/01/28 07:24:17;;;;;;;26.77;13.07;;;4.00;99.90;;;;;;5028163;28;20512;-74
2022/01/28 07:26:43;;;;;;;27.40;13.80;;;4.50;99.90;;;;;;5028408;28;20185;-74
2022/01/28 07:29:10;;;;;;;26.63;13.50;;;4.10;99.90;;;;;;5028171;28;20526;-73
2022/01/28 07:31:37;;;;;;;23.03;11.87;;;4.10;99.90;;;;;;5028456;28;20198;-74
2022/01/28 07:34:03;;;;;;;24.45;13.18;;;4.10;99.90;;;;;;5026697;28;20433;-74
2022/01/28 07:36:28;;;;;;;23.33;11.67;;;4.10;99.90;;;;;;5013946;28;20192;-74
2022/01/28 07:38:54;;;;;;;31.07;12.33;;;4.50;99.90;;;;;;5026861;28;20205;-74
2022/01/28 07:41:19;;;;;;;20.67;11.60;;;4.40;99.90;;;;;;5028006;28;20221;-74
2022/01/28 07:43:48;;;;;;;20.77;10.97;;;4.80;99.90;;;;;;5030992;28;20185;-73
2022/01/28 07:46:14;;;;;;;21.07;11.70;;;4.50;99.90;;;;;;5027740;28;20165;-75
2022/01/28 07:48:40;;;;;;;21.53;11.90;;;5.00;99.90;;;;;;5026756;28;20763;-74
2022/01/28 07:51:05;;;;;;;23.33;12.57;;;4.90;99.90;;;;;;5031058;28;20420;-74
2022/01/28 07:53:31;;;;;;;20.70;11.13;;;4.90;99.90;;;;;;5031710;28;20193;-73
2022/01/28 07:55:56;;;;;;;20.63;11.83;;;4.90;99.90;;;;;;5029878;28;20166;-74
2022/01/28 07:58:22;;;;;;;23.03;12.33;;;5.10;99.90;;;;;;5030240;28;20232;-73
2022/01/28 08:00:48;;;;;;;20.17;11.53;;;4.70;99.90;;;;;;5033645;28;20285;-74
2022/01/28 08:03:13;;;;;;;21.83;11.60;;;4.70;99.90;;;;;;5029259;28;20201;-73
2022/01/28 08:05:39;;;;;;;26.40;12.93;;;4.70;99.90;;;;;;5028499;28;20632;-74
2022/01/28 08:08:07;;;;;;;22.03;12.30;;;5.20;99.90;;;;;;5031695;28;20185;-73
2022/01/28 08:10:33;;;;;;;21.87;12.90;;;5.00;99.90;;;;;;5031552;28;20174;-73
2022/01/28 08:13:03;;;;;;;23.50;14.23;;;4.80;99.90;;;;;;5031215;28;20465;-74
2022/01/28 08:15:30;;;;;;;20.00;12.00;;;4.60;99.90;;;;;;5026310;28;20214;-74
2022/01/28 08:17:55;;;;;;;25.97;12.27;;;4.80;99.90;;;;;;5031915;28;20466;-73
2022/01/28 08:20:21;;;;;;;28.53;13.80;;;5.20;99.90;;;;;;5030798;28;20648;-74
2022/01/28 08:22:54;;;;;;;24.77;13.40;;;4.90;99.90;;;;;;5031853;28;20186;-74
2022/01/28 08:25:22;;;;;;;25.30;14.20;;;4.90;99.90;;;;;;5031161;28;20607;-74
2022/01/28 08:27:48;;;;;;;24.90;11.83;;;4.90;99.90;;;;;;5028615;28;20495;-74
2022/01/28 08:30:17;;;;;;;22.93;12.10;;;4.90;99.90;;;;;;5030514;28;20921;-73
2022/01/28 08:32:43;;;;;;;23.40;12.77;;;4.90;99.90;;;;;;5031118;28;20470;-73
2022/01/28 08:35:10;;;;;;;19.37;11.50;;;5.00;99.90;;;;;;5029633;28;20456;-73
2022/01/28 08:37:36;;;;;;;24.50;12.07;;;5.10;99.90;;;;;;5030832;28;20432;-75
2022/01/28 08:40:02;;;;;;;24.20;13.50;;;5.10;99.90;;;;;;5030826;28;20424;-72
2022/01/28 08:42:28;;;;;;;22.40;11.37;;;5.10;99.90;;;;;;5031517;28;20208;-74
2022/01/28 08:44:53;;;;;;;27.13;13.10;;;5.10;99.90;;;;;;5030045;28;21030;-74
2022/01/28 08:47:19;;;;;;;22.57;12.50;;;5.10;99.90;;;;;;5031366;28;20562;-73
2022/01/28 08:49:48;;;;;;;27.87;12.17;;;5.20;99.90;;;;;;5029260;28;20307;-74
2022/01/28 08:52:13;;;;;;;23.50;12.20;;;5.10;99.90;;;;;;5030396;28;20284;-73
2022/01/28 08:54:41;;;;;;;21.90;12.90;;;5.20;99.90;;;;;;5028739;28;20535;-73
2022/01/28 08:57:07;;;;;;;24.53;12.67;;;5.50;99.90;;;;;;5030774;28;20173;-74
2022/01/28 08:59:32;;;;;;;23.67;12.90;;;5.20;99.90;;;;;;5029073;28;20458;-73
2022/01/28 09:01:58;;;;;;;22.17;13.27;;;5.30;99.90;;;;;;5024811;28;20287;-71
2022/01/28 09:04:23;;;;;;;23.90;12.57;;;5.50;99.90;;;;;;5030113;28;20324;-69
2022/01/28 09:06:49;;;;;;;24.70;12.60;;;5.50;99.90;;;;;;5029600;28;20181;-71
2022/01/28 09:09:15;;;;;;;28.80;12.50;;;5.60;99.90;;;;;;5030825;28;20193;-71
2022/01/28 09:12:05;;;;;;;25.80;11.60;;;5.70;99.90;;;;;;5030790;28;20336;-71
2022/01/28 09:14:30;;;;;;;22.03;12.03;;;5.70;99.90;;;;;;5029482;28;20194;-72
2022/01/28 09:16:56;;;;;;;20.73;11.70;;;5.60;99.90;;;;;;5031434;28;20415;-71
2022/01/28 09:19:22;;;;;;;23.17;12.20;;;5.60;99.90;;;;;;5029589;28;20176;-71
2022/01/28 09:21:49;;;;;;;26.03;11.80;;;5.90;99.90;;;;;;5030394;28;20424;-72
2022/01/28 09:24:14;;;;;;;25.03;13.50;;;6.00;99.90;;;;;;5029747;28;20432;-71
2022/01/28 09:26:40;;;;;;;21.87;11.60;;;5.90;99.90;;;;;;5028506;28;20432;-72
2022/01/28 09:29:06;;;;;;;19.47;11.50;;;6.00;99.90;;;;;;5030352;28;20672;-71
2022/01/28 09:31:32;;;;;;;19.13;11.50;;;5.90;99.90;;;;;;5029025;28;20209;-72
2022/01/28 09:33:57;;;;;;;22.27;12.10;;;5.90;99.90;;;;;;5030058;28;20197;-72
2022/01/28 09:36:23;;;;;;;26.50;13.43;;;6.10;99.90;;;;;;5022384;28;20210;-71
2022/01/28 09:38:49;;;;;;;21.30;12.40;;;5.90;99.90;;;;;;5030043;28;20181;-72
2022/01/28 09:41:15;;;;;;;20.60;12.07;;;5.80;99.90;;;;;;5029538;28;20944;-73
2022/01/28 09:43:46;;;;;;;20.70;11.63;;;5.90;99.90;;;;;;5029763;28;20425;-71
2022/01/28 09:46:12;;;;;;;20.80;12.10;;;6.40;99.90;;;;;;5029665;28;20505;-72
2022/01/28 09:48:39;;;;;;;21.33;11.87;;;6.00;99.90;;;;;;5029077;28;20826;-72
2022/01/28 09:51:05;;;;;;;23.73;12.73;;;6.20;99.90;;;;;;5028139;28;20408;-72
2022/01/28 09:53:31;;;;;;;22.23;11.70;;;6.20;99.90;;;;;;5029900;28;20744;-71
2022/01/28 09:55:57;;;;;;;23.30;11.73;;;6.30;99.90;;;;;;5028068;28;20432;-72
2022/01/28 09:58:24;;;;;;;22.87;12.13;;;6.40;99.90;;;;;;5029976;28;20428;-72
2022/01/28 10:00:50;;;;;;;21.60;11.83;;;6.40;99.90;;;;;;5024956;28;20444;-72
2022/01/28 10:03:17;;;;;;;21.93;12.07;;;6.50;99.90;;;;;;5028906;28;20441;-74
2022/01/28 10:05:52;;;;;;;28.33;12.20;;;6.50;99.90;;;;;;5028233;28;20770;-73
2022/01/28 10:08:20;;;;;;;22.00;12.17;;;6.70;99.90;;;;;;5032219;28;20531;-72
2022/01/28 10:11:05;;;;;;;23.83;11.33;;;7.10;99.90;;;;;;5029154;28;20425;-73
2022/01/28 10:13:45;;;;;;;21.20;10.90;;;7.50;99.90;;;;;;5025680;28;20843;-72
2022/01/28 10:16:12;;;;;;;15.53;9.97;;;8.50;99.90;;;;;;5025954;28;20522;-74
2022/01/28 10:18:41;;;;;;;20.40;10.77;;;9.90;99.90;;;;;;5021545;28;20520;-74
2022/01/28 10:21:23;;;;;;;20.33;10.80;;;11.40;99.90;;;;;;5025851;28;21107;-72
2022/01/28 10:24:07;;;;;;;18.20;9.60;;;11.30;99.90;;;;;;5025458;28;20422;-73
2022/01/28 10:26:34;;;;;;;18.93;10.17;;;10.60;99.90;;;;;;5019740;28;20514;-72
2022/01/28 10:29:00;;;;;;;16.37;10.00;;;9.90;99.90;;;;;;5028051;28;20416;-73
2022/01/28 10:31:41;;;;;;;16.30;9.80;;;12.40;99.90;;;;;;5026243;28;20456;-73
2022/01/28 10:34:22;;;;;;;21.33;11.30;;;13.00;99.90;;;;;;5030176;28;20546;-73
2022/01/28 10:36:49;;;;;;;15.33;9.90;;;14.20;99.90;;;;;;5035033;28;20771;-72
2022/01/28 10:39:18;;;;;;;17.67;10.67;;;14.10;99.90;;;;;;5033313;28;20874;-72
2022/01/28 10:41:58;;;;;;;19.70;10.87;;;12.40;99.90;;;;;;5027644;28;20925;-73
2022/01/28 10:44:26;;;;;;;18.10;10.67;;;11.90;99.90;;;;;;5028412;28;20522;-73
2022/01/28 10:46:59;;;;;;;16.47;10.40;;;10.90;99.90;;;;;;5027969;28;20433;-72
2022/01/28 10:49:33;;;;;;;19.37;10.50;;;11.30;99.90;;;;;;5028571;28;20512;-74
2022/01/28 10:52:12;;;;;;;17.47;11.40;;;11.60;99.90;;;;;;5039238;28;20451;-73
2022/01/28 10:54:38;;;;;;;18.90;11.07;;;11.50;99.90;;;;;;5028132;28;20488;-73
2022/01/28 10:57:07;;;;;;;17.50;10.30;;;10.80;99.90;;;;;;5028876;28;20413;-73
2022/01/28 10:59:38;;;;;;;21.60;11.50;;;10.90;99.90;;;;;;5027670;28;20707;-72
2022/01/28 11:02:05;;;;;;;19.43;10.63;;;11.00;99.90;;;;;;5025500;28;20443;-72
2022/01/28 11:04:30;;;;;;;15.20;10.40;;;10.90;99.90;;;;;;5026101;28;20822;-73
2022/01/28 11:06:58;;;;;;;17.27;9.00;;;10.70;99.90;;;;;;5026142;28;20478;-73
2022/01/28 11:09:24;;;;;;;15.80;8.60;;;10.60;99.90;;;;;;5028809;28;20280;-73
2022/01/28 11:11:50;;;;;;;18.40;8.93;;;11.90;99.90;;;;;;5039351;28;20545;-72
2022/01/28 11:14:17;;;;;;;15.80;9.13;;;12.80;99.90;;;;;;5030822;28;20983;-73
2022/01/28 11:16:43;;;;;;;12.60;8.20;;;14.40;99.90;;;;;;5027803;28;20890;-73
2022/01/28 11:19:12;;;;;;;13.20;7.97;;;14.60;99.90;;;;;;5028206;28;20506;-74
2022/01/28 11:21:51;;;;;;;13.63;6.70;;;12.70;99.90;;;;;;5027126;28;20189;-73
2022/01/28 11:24:38;;;;;;;16.50;7.80;;;12.40;99.90;;;;;;5028061;28;20424;-73
2022/01/28 11:27:10;;;;;;;10.93;6.70;;;13.00;99.90;;;;;;5029124;28;20510;-73
2022/01/28 11:29:36;;;;;;;12.67;6.37;;;14.90;99.90;;;;;;5027623;28;20453;-73
2022/01/28 11:32:15;;;;;;;10.43;6.43;;;15.50;99.90;;;;;;5028827;28;20515;-73
2022/01/28 11:35:05;;;;;;;13.03;6.57;;;16.20;99.90;;;;;;5023927;28;20239;-73
2022/01/28 11:37:34;;;;;;;12.37;7.17;;;18.20;99.90;;;;;;5020836;28;20431;-73
2022/01/28 11:40:12;;;;;;;11.97;7.17;;;19.20;99.90;;;;;;5027760;28;20429;-75
2022/01/28 11:42:38;;;;;;;10.33;7.30;;;19.10;99.90;;;;;;5026666;28;21056;-73
2022/01/28 11:45:09;;;;;;;12.67;7.30;;;19.30;99.90;;;;;;5027262;28;20439;-73
2022/01/28 11:47:41;;;;;;;12.57;7.13;;;18.40;99.90;;;;;;5026230;28;20251;-73
2022/01/28 11:50:08;;;;;;;11.70;6.50;;;15.70;99.90;;;;;;5028123;28;20411;-73
2022/01/28 11:52:55;;;;;;;7.17;5.27;;;13.30;99.90;;;;;;5027525;28;20513;-72
2022/01/28 11:55:21;;;;;;;8.90;5.27;;;12.30;99.90;;;;;;5026439;28;20452;-72
2022/01/28 11:58:06;;;;;;;9.40;5.17;;;11.80;99.90;;;;;;5027779;28;20927;-74
2022/01/28 12:00:38;;;;;;;11.03;5.67;;;11.90;99.90;;;;;;5027186;28;20185;-73
2022/01/28 12:03:30;;;;;;;9.63;5.60;;;11.30;99.90;;;;;;5028435;28;20527;-73
2022/01/28 12:05:57;;;;;;;8.00;5.60;;;11.20;99.90;;;;;;5025002;28;20428;-73
2022/01/28 12:08:30;;;;;;;8.30;5.93;;;12.40;99.90;;;;;;5028080;28;20923;-74
2022/01/28 12:10:57;;;;;;;8.30;6.70;;;17.40;99.90;;;;;;5027149;28;20955;-73
2022/01/28 12:13:49;;;;;;;11.97;7.63;;;17.30;99.90;;;;;;5025556;28;20897;-73
2022/01/28 12:16:30;;;;;;;13.37;8.80;;;19.10;99.90;;;;;;5023651;28;20435;-72
2022/01/28 12:18:58;;;;;;;15.07;8.57;;;19.70;99.90;;;;;;5026578;28;20428;-73
2022/01/28 12:21:28;;;;;;;12.83;7.60;;;17.30;99.90;;;;;;5026919;28;20442;-73
2022/01/28 12:24:19;;;;;;;13.33;8.00;;;17.20;99.90;;;;;;5023033;28;20429;-74
2022/01/28 12:27:04;;;;;;;11.23;8.00;;;16.50;99.90;;;;;;5021820;28;20417;-73
2022/01/28 12:29:52;;;;;;;13.60;6.63;;;14.60;99.90;;;;;;5027146;28;20483;-73
2022/01/28 12:32:23;;;;;;;10.10;6.83;;;12.80;99.90;;;;;;5029676;28;20471;-72
2022/01/28 12:34:49;;;;;;;14.80;6.23;;;12.30;99.90;;;;;;5025192;28;20464;-73
2022/01/28 12:37:20;;;;;;;8.63;5.20;;;11.80;99.90;;;;;;5028739;28;20421;-73
2022/01/28 12:39:55;;;;;;;7.53;5.00;;;11.50;99.90;;;;;;5031302;28;20177;-74
2022/01/28 12:44:58;;;;;;;9.00;6.80;;;11.90;99.90;;;;;;5031456;28;20539;-74
2022/01/28 12:47:26;;;;;;;13.87;6.93;;;13.00;99.90;;;;;;5035850;28;20177;-74
2022/01/28 12:49:57;;;;;;;12.70;7.63;;;13.00;99.90;;;;;;5050664;28;21060;-74
2022/01/28 12:52:23;;;;;;;11.57;7.47;;;12.40;99.90;;;;;;5043145;28;20787;-73
2022/01/28 12:54:49;;;;;;;10.93;7.37;;;12.00;99.90;;;;;;5050704;28;20462;-73
2022/01/28 12:57:17;;;;;;;13.90;8.17;;;11.80;99.90;;;;;;5038714;28;20428;-72
2022/01/28 12:59:47;;;;;;;14.33;9.30;;;11.40;99.90;;;;;;5022183;28;20495;-72
2022/01/28 13:02:15;;;;;;;15.70;7.60;;;11.40;99.90;;;;;;5026122;28;20594;-73
2022/01/28 13:10:27;;;;;;;16.10;8.60;;;10.10;99.90;;;;;;5030169;28;21480;-73
2022/01/28 13:13:04;;;;;;;16.80;8.10;;;9.60;99.90;;;;;;5031350;28;20996;-74
2022/01/28 13:15:29;;;;;;;13.20;7.30;;;9.50;99.90;;;;;;5031582;28;21041;-73
2022/01/28 13:18:00;;;;;;;15.60;8.00;;;9.30;99.90;;;;;;5030880;28;20628;-72
2022/01/28 13:20:41;;;;;;;12.60;8.07;;;9.30;99.90;;;;;;5028209;28;20171;-72
2022/01/28 13:23:09;;;;;;;14.53;8.20;;;9.50;99.90;;;;;;5030088;28;20443;-72
2022/01/28 13:25:35;;;;;;;12.17;7.17;;;9.40;99.90;;;;;;5030700;28;20433;-72
2022/01/28 13:28:04;;;;;;;18.37;7.27;;;9.00;99.90;;;;;;5030168;28;20767;-73
2022/01/28 13:30:38;;;;;;;13.63;7.47;;;8.80;99.90;;;;;;5029971;28;20619;-72
2022/01/28 13:33:06;;;;;;;12.73;6.50;;;8.70;99.90;;;;;;5028789;28;20450;-71
2022/01/28 13:35:33;;;;;;;12.27;6.90;;;8.80;99.90;;;;;;5027314;28;20456;-73
2022/01/28 13:38:06;;;;;;;11.13;5.50;;;8.90;99.90;;;;;;5030721;28;20953;-72
2022/01/28 13:40:37;;;;;;;10.73;5.13;;;8.90;99.90;;;;;;5017080;28;20432;-72
2022/01/28 13:43:09;;;;;;;11.00;5.87;;;9.10;99.90;;;;;;5028272;28;20440;-72
2022/01/28 13:46:05;;;;;;;10.70;5.90;;;9.40;99.90;;;;;;5028752;28;20471;-73
2022/01/28 13:48:34;;;;;;;8.37;5.03;;;9.90;99.90;;;;;;5030084;28;20509;-73
2022/01/28 13:51:08;;;;;;;8.70;5.07;;;11.10;99.90;;;;;;5028341;28;20939;-72
2022/01/28 13:56:43;;;;;;;10.00;5.40;;;11.10;99.90;;;;;;5027614;28;20849;-71
2022/01/28 13:59:11;;;;;;;11.10;5.63;;;10.70;99.90;;;;;;5029250;28;20540;-71
2022/01/28 14:01:37;;;;;;;13.30;5.43;;;10.50;99.90;;;;;;5030030;28;20817;-72
2022/01/28 14:04:04;;;;;;;11.03;6.40;;;10.40;99.90;;;;;;5049074;28;20477;-72
2022/01/28 14:06:34;;;;;;;8.40;4.97;;;10.10;99.90;;;;;;5027811;28;20205;-72
2022/01/28 14:09:04;;;;;;;12.83;7.53;;;9.90;99.90;;;;;;5029402;28;20448;-72
2022/01/28 14:11:38;;;;;;;9.87;6.20;;;10.00;99.90;;;;;;5029390;28;20479;-73
2022/01/28 14:14:33;;;;;;;9.67;6.00;;;10.00;99.90;;;;;;5026515;28;20941;-72
2022/01/28 14:17:00;;;;;;;11.70;7.00;;;10.00;99.90;;;;;;5028429;28;20949;-73